sensor_id;sensor_type;location;lat;lon;timestamp;P1;durP1;ratioP1;P2;durP2;ratioP2
76194;SDS011;64964;48.694;21.206;2023-06-01T05:55:57;4.57;;;2.80;;
76194;SDS011;64964;48.694;21.206;2023-06-01T05:58:22;7.43;;;3.20;;
76194;SDS011;64964;48.694;21.206;2023-06-01T06:00:47;6.05;;;3.03;;
76194;SDS011;64964;48.694;21.206;2023-06-01T06:03:13;5.83;;;3.20;;
76194;SDS011;64964;48.694;21.206;2023-06-01T06:05:38;6.90;;;3.13;;
76194;SDS011;64964;48.694;21.206;2023-06-01T06:08:04;8.93;;;3.30;;
76194;SDS011;64964;48.694;21.206;2023-06-01T06:10:29;5.40;;;3.70;;
76194;SDS011;64964;48.694;21.206;2023-06-01T06:12:54;9.67;;;3.37;;
76194;SDS011;64964;48.694;21.206;2023-06-01T06:15:20;5.60;;;3.17;;
76194;SDS011;64964;48.694;21.206;2023-06-01T06:17:45;6.18;;;3.35;;
76194;SDS011;64964;48.694;21.206;2023-06-01T06:20:11;6.30;;;3.40;;
76194;SDS011;64964;48.694;21.206;2023-06-01T06:22:37;8.30;;;3.17;;
76194;SDS011;64964;48.694;21.206;2023-06-01T06:25:02;10.70;;;3.33;;
76194;SDS011;64964;48.694;21.206;2023-06-01T06:27:28;6.63;;;2.88;;
76194;SDS011;64964;48.694;21.206;2023-06-01T06:29:54;6.10;;;3.03;;
76194;SDS011;64964;48.694;21.206;2023-06-01T06:32:19;9.17;;;3.20;;
76194;SDS011;64964;48.694;21.206;2023-06-01T06:34:45;7.40;;;3.00;;
76194;SDS011;64964;48.694;21.206;2023-06-01T06:37:11;6.70;;;3.17;;
76194;SDS011;64964;48.694;21.206;2023-06-01T06:39:36;6.22;;;3.30;;
76194;SDS011;64964;48.694;21.206;2023-06-01T06:42:03;8.07;;;3.23;;
76194;SDS011;64964;48.694;21.206;2023-06-01T06:44:30;6.43;;;3.20;;
76194;SDS011;64964;48.694;21.206;2023-06-01T06:46:57;7.45;;;2.95;;
76194;SDS011;64964;48.694;21.206;2023-06-01T06:49:24;4.32;;;2.83;;
76194;SDS011;64964;48.694;21.206;2023-06-01T06:51:50;5.77;;;2.73;;
76194;SDS011;64964;48.694;21.206;2023-06-01T06:54:15;3.80;;;2.70;;
76194;SDS011;64964;48.694;21.206;2023-06-01T06:56:41;3.50;;;2.20;;
76194;SDS011;64964;48.694;21.206;2023-06-01T06:59:06;7.22;;;2.47;;
76194;SDS011;64964;48.694;21.206;2023-06-01T07:01:32;6.27;;;3.13;;
76194;SDS011;64964;48.694;21.206;2023-06-01T07:04:00;8.07;;;2.90;;
76194;SDS011;64964;48.694;21.206;2023-06-01T07:06:26;3.83;;;2.47;;
76194;SDS011;64964;48.694;21.206;2023-06-01T07:08:51;7.67;;;2.60;;
76194;SDS011;64964;48.694;21.206;2023-06-01T07:11:17;4.03;;;2.60;;
76194;SDS011;64964;48.694;21.206;2023-06-01T07:13:43;4.47;;;2.50;;
76194;SDS011;64964;48.694;21.206;2023-06-01T07:16:09;6.87;;;2.33;;
76194;SDS011;64964;48.694;21.206;2023-06-01T07:18:34;5.17;;;2.60;;
76194;SDS011;64964;48.694;21.206;2023-06-01T07:20:59;3.57;;;2.47;;
76194;SDS011;64964;48.694;21.206;2023-06-01T07:23:25;6.10;;;2.70;;
76194;SDS011;64964;48.694;21.206;2023-06-01T07:25:51;6.63;;;2.70;;
76194;SDS011;64964;48.694;21.206;2023-06-01T07:28:17;6.30;;;2.40;;
76194;SDS011;64964;48.694;21.206;2023-06-01T07:30:43;6.28;;;2.70;;
76194;SDS011;64964;48.694;21.206;2023-06-01T07:33:08;6.73;;;2.70;;
76194;SDS011;64964;48.694;21.206;2023-06-01T07:35:33;4.68;;;2.33;;
76194;SDS011;64964;48.694;21.206;2023-06-01T07:37:59;3.77;;;2.40;;
76194;SDS011;64964;48.694;21.206;2023-06-01T07:40:25;5.82;;;2.50;;
76194;SDS011;64964;48.694;21.206;2023-06-01T07:42:50;4.33;;;2.47;;
76194;SDS011;64964;48.694;21.206;2023-06-01T07:45:16;6.23;;;2.63;;
76194;SDS011;64964;48.694;21.206;2023-06-01T07:47:42;6.15;;;2.72;;
76194;SDS011;64964;48.694;21.206;2023-06-01T07:50:07;6.47;;;2.57;;
76194;SDS011;64964;48.694;21.206;2023-06-01T07:52:33;5.40;;;2.40;;
76194;SDS011;64964;48.694;21.206;2023-06-01T07:54:59;4.03;;;2.70;;
76194;SDS011;64964;48.694;21.206;2023-06-01T07:57:24;7.83;;;3.60;;
76194;SDS011;64964;48.694;21.206;2023-06-01T07:59:50;5.60;;;2.97;;
76194;SDS011;64964;48.694;21.206;2023-06-01T08:02:15;5.90;;;2.50;;
76194;SDS011;64964;48.694;21.206;2023-06-01T08:04:41;4.97;;;2.58;;
76194;SDS011;64964;48.694;21.206;2023-06-01T08:07:06;4.30;;;2.90;;
76194;SDS011;64964;48.694;21.206;2023-06-01T08:09:32;6.63;;;2.70;;
76194;SDS011;64964;48.694;21.206;2023-06-01T08:11:58;5.70;;;2.87;;
76194;SDS011;64964;48.694;21.206;2023-06-01T08:14:23;6.80;;;3.37;;
76194;SDS011;64964;48.694;21.206;2023-06-01T08:16:49;10.48;;;2.72;;
76194;SDS011;64964;48.694;21.206;2023-06-01T08:19:16;5.67;;;2.73;;
76194;SDS011;64964;48.694;21.206;2023-06-01T08:21:42;5.43;;;2.90;;
76194;SDS011;64964;48.694;21.206;2023-06-01T08:24:08;7.60;;;2.70;;
76194;SDS011;64964;48.694;21.206;2023-06-01T08:26:34;7.60;;;2.80;;
76194;SDS011;64964;48.694;21.206;2023-06-01T08:29:00;4.85;;;2.78;;
76194;SDS011;64964;48.694;21.206;2023-06-01T08:31:25;5.35;;;2.80;;
76194;SDS011;64964;48.694;21.206;2023-06-01T08:33:51;9.00;;;3.07;;
76194;SDS011;64964;48.694;21.206;2023-06-01T08:36:17;4.93;;;2.63;;
76194;SDS011;64964;48.694;21.206;2023-06-01T08:38:45;5.80;;;2.70;;
76194;SDS011;64964;48.694;21.206;2023-06-01T08:41:20;4.23;;;2.63;;
76194;SDS011;64964;48.694;21.206;2023-06-01T08:44:02;4.23;;;2.77;;
76194;SDS011;64964;48.694;21.206;2023-06-01T08:46:30;5.30;;;2.92;;
76194;SDS011;64964;48.694;21.206;2023-06-01T08:48:57;5.65;;;2.85;;
76194;SDS011;64964;48.694;21.206;2023-06-01T08:51:23;4.63;;;3.15;;
76194;SDS011;64964;48.694;21.206;2023-06-01T08:53:50;4.80;;;2.83;;
76194;SDS011;64964;48.694;21.206;2023-06-01T08:56:16;6.65;;;2.70;;
76194;SDS011;64964;48.694;21.206;2023-06-01T08:58:43;8.13;;;2.97;;
76194;SDS011;64964;48.694;21.206;2023-06-01T09:01:09;11.50;;;3.60;;
76194;SDS011;64964;48.694;21.206;2023-06-01T09:03:40;6.82;;;2.60;;
76194;SDS011;64964;48.694;21.206;2023-06-01T09:06:06;10.23;;;3.00;;
76194;SDS011;64964;48.694;21.206;2023-06-01T09:08:31;5.07;;;2.90;;
76194;SDS011;64964;48.694;21.206;2023-06-01T09:10:57;5.00;;;2.90;;
76194;SDS011;64964;48.694;21.206;2023-06-01T09:13:39;7.93;;;2.78;;
76194;SDS011;64964;48.694;21.206;2023-06-01T09:16:05;4.88;;;2.85;;
76194;SDS011;64964;48.694;21.206;2023-06-01T09:18:31;5.05;;;2.70;;
76194;SDS011;64964;48.694;21.206;2023-06-01T09:21:15;3.97;;;2.70;;
76194;SDS011;64964;48.694;21.206;2023-06-01T09:23:40;5.60;;;2.80;;
76194;SDS011;64964;48.694;21.206;2023-06-01T09:26:08;4.93;;;2.90;;
76194;SDS011;64964;48.694;21.206;2023-06-01T09:34:08;4.22;;;2.97;;
76194;SDS011;64964;48.694;21.206;2023-06-01T09:36:34;4.70;;;3.17;;
76194;SDS011;64964;48.694;21.206;2023-06-01T09:39:08;6.45;;;2.80;;
76194;SDS011;64964;48.694;21.206;2023-06-01T09:44:22;8.13;;;2.90;;
76194;SDS011;64964;48.694;21.206;2023-06-01T09:46:53;6.32;;;2.80;;
76194;SDS011;64964;48.694;21.206;2023-06-01T09:49:21;5.95;;;2.90;;
76194;SDS011;64964;48.694;21.206;2023-06-01T09:51:50;5.00;;;3.10;;
76194;SDS011;64964;48.694;21.206;2023-06-01T09:54:23;7.28;;;3.15;;
76194;SDS011;64964;48.694;21.206;2023-06-01T09:56:50;4.65;;;2.70;;
76194;SDS011;64964;48.694;21.206;2023-06-01T09:59:16;5.10;;;3.00;;
76194;SDS011;64964;48.694;21.206;2023-06-01T10:01:58;5.37;;;2.90;;
76194;SDS011;64964;48.694;21.206;2023-06-01T10:04:24;10.50;;;3.50;;
76194;SDS011;64964;48.694;21.206;2023-06-01T10:06:51;4.97;;;3.30;;
76194;SDS011;64964;48.694;21.206;2023-06-01T10:09:19;9.88;;;3.50;;
76194;SDS011;64964;48.694;21.206;2023-06-01T10:11:47;6.45;;;3.40;;
76194;SDS011;64964;48.694;21.206;2023-06-01T10:14:16;8.17;;;3.20;;
76194;SDS011;64964;48.694;21.206;2023-06-01T10:16:42;10.73;;;3.23;;
76194;SDS011;64964;48.694;21.206;2023-06-01T10:19:11;9.27;;;3.55;;
76194;SDS011;64964;48.694;21.206;2023-06-01T10:21:37;11.35;;;3.90;;
76194;SDS011;64964;48.694;21.206;2023-06-01T10:24:05;6.55;;;3.50;;
76194;SDS011;64964;48.694;21.206;2023-06-01T10:26:36;10.27;;;4.20;;
76194;SDS011;64964;48.694;21.206;2023-06-01T10:29:07;10.65;;;3.47;;
76194;SDS011;64964;48.694;21.206;2023-06-01T10:31:37;10.85;;;4.03;;
76194;SDS011;64964;48.694;21.206;2023-06-01T10:34:07;10.45;;;3.80;;
76194;SDS011;64964;48.694;21.206;2023-06-01T10:39:24;10.73;;;3.83;;
76194;SDS011;64964;48.694;21.206;2023-06-01T10:41:50;10.53;;;4.87;;
76194;SDS011;64964;48.694;21.206;2023-06-01T10:47:04;11.20;;;4.40;;
76194;SDS011;64964;48.694;21.206;2023-06-01T10:57:39;5.90;;;3.38;;
76194;SDS011;64964;48.694;21.206;2023-06-01T11:00:21;7.50;;;3.78;;
76194;SDS011;64964;48.694;21.206;2023-06-01T11:13:17;10.88;;;3.67;;
76194;SDS011;64964;48.694;21.206;2023-06-01T11:18:54;6.55;;;2.90;;
76194;SDS011;64964;48.694;21.206;2023-06-01T11:24:09;10.45;;;3.50;;
76194;SDS011;64964;48.694;21.206;2023-06-01T11:26:37;5.80;;;2.55;;
76194;SDS011;64964;48.694;21.206;2023-06-01T11:31:38;5.03;;;2.90;;
76194;SDS011;64964;48.694;21.206;2023-06-01T11:34:07;6.33;;;2.80;;
76194;SDS011;64964;48.694;21.206;2023-06-01T11:36:41;4.47;;;2.95;;
76194;SDS011;64964;48.694;21.206;2023-06-01T11:39:26;4.28;;;2.83;;
76194;SDS011;64964;48.694;21.206;2023-06-01T11:42:03;5.57;;;3.08;;
76194;SDS011;64964;48.694;21.206;2023-06-01T11:44:38;6.47;;;2.78;;
76194;SDS011;64964;48.694;21.206;2023-06-01T11:47:05;7.43;;;3.10;;
76194;SDS011;64964;48.694;21.206;2023-06-01T11:52:12;4.35;;;2.85;;
76194;SDS011;64964;48.694;21.206;2023-06-01T11:54:38;5.75;;;3.13;;
76194;SDS011;64964;48.694;21.206;2023-06-01T11:57:04;4.90;;;2.67;;
76194;SDS011;64964;48.694;21.206;2023-06-01T12:02:04;4.47;;;2.80;;
76194;SDS011;64964;48.694;21.206;2023-06-01T12:04:41;4.38;;;2.65;;
76194;SDS011;64964;48.694;21.206;2023-06-01T12:07:06;5.00;;;3.10;;
76194;SDS011;64964;48.694;21.206;2023-06-01T12:09:33;4.80;;;3.00;;
76194;SDS011;64964;48.694;21.206;2023-06-01T12:11:59;4.93;;;2.85;;
76194;SDS011;64964;48.694;21.206;2023-06-01T12:14:25;4.60;;;2.93;;
76194;SDS011;64964;48.694;21.206;2023-06-01T12:16:57;19.27;;;9.87;;
76194;SDS011;64964;48.694;21.206;2023-06-01T12:19:24;6.47;;;3.63;;
76194;SDS011;64964;48.694;21.206;2023-06-01T12:21:52;6.95;;;3.97;;
76194;SDS011;64964;48.694;21.206;2023-06-01T12:24:29;4.60;;;2.70;;
76194;SDS011;64964;48.694;21.206;2023-06-01T12:26:58;4.55;;;2.85;;
76194;SDS011;64964;48.694;21.206;2023-06-01T12:32:20;4.93;;;2.80;;
76194;SDS011;64964;48.694;21.206;2023-06-01T12:35:02;4.00;;;2.70;;
76194;SDS011;64964;48.694;21.206;2023-06-01T12:37:30;7.60;;;2.95;;
76194;SDS011;64964;48.694;21.206;2023-06-01T12:39:56;5.57;;;2.80;;
76194;SDS011;64964;48.694;21.206;2023-06-01T12:42:39;4.73;;;2.80;;
76194;SDS011;64964;48.694;21.206;2023-06-01T12:45:06;7.38;;;2.88;;
76194;SDS011;64964;48.694;21.206;2023-06-01T12:47:36;5.90;;;3.00;;
76194;SDS011;64964;48.694;21.206;2023-06-01T12:50:06;5.67;;;2.63;;
76194;SDS011;64964;48.694;21.206;2023-06-01T12:52:33;5.13;;;3.00;;
76194;SDS011;64964;48.694;21.206;2023-06-01T12:54:59;5.25;;;2.80;;
76194;SDS011;64964;48.694;21.206;2023-06-01T12:57:24;5.10;;;2.90;;
76194;SDS011;64964;48.694;21.206;2023-06-01T12:59:49;3.93;;;2.90;;
76194;SDS011;64964;48.694;21.206;2023-06-01T13:02:15;5.17;;;2.97;;
76194;SDS011;64964;48.694;21.206;2023-06-01T13:04:41;4.93;;;2.70;;
76194;SDS011;64964;48.694;21.206;2023-06-01T13:07:07;5.43;;;3.05;;
76194;SDS011;64964;48.694;21.206;2023-06-01T13:09:32;7.33;;;2.93;;
76194;SDS011;64964;48.694;21.206;2023-06-01T13:11:58;4.37;;;2.80;;
76194;SDS011;64964;48.694;21.206;2023-06-01T13:14:23;6.97;;;3.47;;
76194;SDS011;64964;48.694;21.206;2023-06-01T13:16:48;4.53;;;3.03;;
76194;SDS011;64964;48.694;21.206;2023-06-01T13:19:14;6.80;;;2.90;;
76194;SDS011;64964;48.694;21.206;2023-06-01T13:21:39;4.82;;;3.20;;
76194;SDS011;64964;48.694;21.206;2023-06-01T13:24:05;5.07;;;3.20;;
76194;SDS011;64964;48.694;21.206;2023-06-01T13:26:30;9.30;;;2.93;;
76194;SDS011;64964;48.694;21.206;2023-06-01T13:28:56;8.02;;;3.28;;
76194;SDS011;64964;48.694;21.206;2023-06-01T13:31:21;8.03;;;3.57;;
76194;SDS011;64964;48.694;21.206;2023-06-01T13:33:47;5.57;;;3.17;;
76194;SDS011;64964;48.694;21.206;2023-06-01T13:36:13;6.50;;;3.20;;
76194;SDS011;64964;48.694;21.206;2023-06-01T13:38:38;6.10;;;2.97;;
76194;SDS011;64964;48.694;21.206;2023-06-01T13:41:05;7.28;;;3.33;;
76194;SDS011;64964;48.694;21.206;2023-06-01T13:43:30;6.65;;;3.35;;
76194;SDS011;64964;48.694;21.206;2023-06-01T13:45:56;6.50;;;3.93;;
76194;SDS011;64964;48.694;21.206;2023-06-01T13:48:21;6.53;;;3.63;;
76194;SDS011;64964;48.694;21.206;2023-06-01T13:50:47;5.93;;;3.40;;
76194;SDS011;64964;48.694;21.206;2023-06-01T13:53:12;9.77;;;4.03;;
76194;SDS011;64964;48.694;21.206;2023-06-01T13:55:38;6.40;;;3.40;;
76194;SDS011;64964;48.694;21.206;2023-06-01T13:58:04;4.70;;;3.30;;
76194;SDS011;64964;48.694;21.206;2023-06-01T14:00:29;7.53;;;3.92;;
76194;SDS011;64964;48.694;21.206;2023-06-01T14:02:55;6.70;;;3.70;;
76194;SDS011;64964;48.694;21.206;2023-06-01T14:05:20;7.30;;;3.70;;
76194;SDS011;64964;48.694;21.206;2023-06-01T14:07:46;5.87;;;3.60;;
76194;SDS011;64964;48.694;21.206;2023-06-01T14:10:11;5.70;;;3.42;;
76194;SDS011;64964;48.694;21.206;2023-06-01T14:12:38;8.30;;;3.50;;
76194;SDS011;64964;48.694;21.206;2023-06-01T14:15:04;5.65;;;3.30;;
76194;SDS011;64964;48.694;21.206;2023-06-01T14:17:30;6.25;;;3.70;;
76194;SDS011;64964;48.694;21.206;2023-06-01T14:19:56;5.80;;;3.50;;
76194;SDS011;64964;48.694;21.206;2023-06-01T14:22:21;5.75;;;3.97;;
76194;SDS011;64964;48.694;21.206;2023-06-01T14:24:47;7.13;;;3.43;;
76194;SDS011;64964;48.694;21.206;2023-06-01T14:27:12;6.20;;;3.50;;
76194;SDS011;64964;48.694;21.206;2023-06-01T14:29:37;5.57;;;3.40;;
76194;SDS011;64964;48.694;21.206;2023-06-01T14:32:03;5.03;;;3.90;;
76194;SDS011;64964;48.694;21.206;2023-06-01T14:34:28;5.07;;;4.00;;
76194;SDS011;64964;48.694;21.206;2023-06-01T14:36:54;10.18;;;3.78;;
76194;SDS011;64964;48.694;21.206;2023-06-01T14:39:19;5.57;;;3.90;;
76194;SDS011;64964;48.694;21.206;2023-06-01T14:41:45;6.23;;;3.80;;
76194;SDS011;64964;48.694;21.206;2023-06-01T14:44:10;7.43;;;3.73;;
76194;SDS011;64964;48.694;21.206;2023-06-01T14:46:35;6.25;;;3.72;;
76194;SDS011;64964;48.694;21.206;2023-06-01T14:49:01;6.30;;;3.70;;
76194;SDS011;64964;48.694;21.206;2023-06-01T14:51:29;5.85;;;3.47;;
76194;SDS011;64964;48.694;21.206;2023-06-01T14:53:54;5.97;;;3.57;;
76194;SDS011;64964;48.694;21.206;2023-06-01T14:56:20;7.15;;;3.40;;
76194;SDS011;64964;48.694;21.206;2023-06-01T14:58:47;6.53;;;3.90;;
76194;SDS011;64964;48.694;21.206;2023-06-01T15:01:12;8.00;;;4.20;;
76194;SDS011;64964;48.694;21.206;2023-06-01T15:03:37;6.60;;;3.67;;
76194;SDS011;64964;48.694;21.206;2023-06-01T15:06:03;8.00;;;3.87;;
76194;SDS011;64964;48.694;21.206;2023-06-01T15:08:30;5.93;;;3.80;;
76194;SDS011;64964;48.694;21.206;2023-06-01T15:10:55;7.27;;;3.50;;
76194;SDS011;64964;48.694;21.206;2023-06-01T15:13:20;8.13;;;4.00;;
76194;SDS011;64964;48.694;21.206;2023-06-01T15:15:46;5.73;;;3.60;;
76194;SDS011;64964;48.694;21.206;2023-06-01T15:18:11;4.50;;;3.50;;
76194;SDS011;64964;48.694;21.206;2023-06-01T15:20:37;7.15;;;3.60;;
76194;SDS011;64964;48.694;21.206;2023-06-01T15:23:02;5.90;;;3.80;;
76194;SDS011;64964;48.694;21.206;2023-06-01T15:25:28;6.63;;;4.17;;
76194;SDS011;64964;48.694;21.206;2023-06-01T15:27:53;5.27;;;3.30;;
76194;SDS011;64964;48.694;21.206;2023-06-01T15:30:18;6.60;;;4.03;;
76194;SDS011;64964;48.694;21.206;2023-06-01T15:32:44;5.25;;;3.60;;
76194;SDS011;64964;48.694;21.206;2023-06-01T15:35:09;5.83;;;3.87;;
76194;SDS011;64964;48.694;21.206;2023-06-01T15:37:34;9.27;;;3.93;;
76194;SDS011;64964;48.694;21.206;2023-06-01T15:40:00;7.70;;;3.80;;
76194;SDS011;64964;48.694;21.206;2023-06-01T15:42:27;8.52;;;3.92;;
76194;SDS011;64964;48.694;21.206;2023-06-01T15:44:52;8.07;;;3.85;;
76194;SDS011;64964;48.694;21.206;2023-06-01T15:47:17;6.40;;;3.80;;
76194;SDS011;64964;48.694;21.206;2023-06-01T15:49:43;6.90;;;4.40;;
76194;SDS011;64964;48.694;21.206;2023-06-01T15:52:08;7.30;;;3.80;;
76194;SDS011;64964;48.694;21.206;2023-06-01T15:54:34;6.45;;;3.83;;
76194;SDS011;64964;48.694;21.206;2023-06-01T15:57:00;6.25;;;4.00;;
76194;SDS011;64964;48.694;21.206;2023-06-01T15:59:28;5.73;;;3.57;;
76194;SDS011;64964;48.694;21.206;2023-06-01T16:01:54;6.73;;;3.90;;
76194;SDS011;64964;48.694;21.206;2023-06-01T16:04:20;7.13;;;3.83;;
76194;SDS011;64964;48.694;21.206;2023-06-01T16:06:45;9.02;;;3.85;;
76194;SDS011;64964;48.694;21.206;2023-06-01T16:09:10;5.83;;;3.77;;
76194;SDS011;64964;48.694;21.206;2023-06-01T16:11:36;6.80;;;4.70;;
76194;SDS011;64964;48.694;21.206;2023-06-01T16:14:01;6.70;;;4.57;;
76194;SDS011;64964;48.694;21.206;2023-06-01T16:16:26;8.55;;;4.75;;
76194;SDS011;64964;48.694;21.206;2023-06-01T16:18:52;7.87;;;5.07;;
76194;SDS011;64964;48.694;21.206;2023-06-01T16:21:17;8.53;;;4.43;;
76194;SDS011;64964;48.694;21.206;2023-06-01T16:23:43;7.60;;;4.27;;
76194;SDS011;64964;48.694;21.206;2023-06-01T16:26:08;6.47;;;4.05;;
76194;SDS011;64964;48.694;21.206;2023-06-01T16:28:34;7.97;;;3.90;;
76194;SDS011;64964;48.694;21.206;2023-06-01T16:31:02;7.50;;;4.10;;
76194;SDS011;64964;48.694;21.206;2023-06-01T16:33:28;7.40;;;3.92;;
76194;SDS011;64964;48.694;21.206;2023-06-01T16:35:53;7.70;;;4.10;;
76194;SDS011;64964;48.694;21.206;2023-06-01T16:38:19;9.73;;;4.03;;
76194;SDS011;64964;48.694;21.206;2023-06-01T16:40:44;9.77;;;5.07;;
76194;SDS011;64964;48.694;21.206;2023-06-01T16:43:09;7.13;;;3.83;;
76194;SDS011;64964;48.694;21.206;2023-06-01T16:45:38;5.97;;;4.15;;
76194;SDS011;64964;48.694;21.206;2023-06-01T16:48:03;7.70;;;4.30;;
76194;SDS011;64964;48.694;21.206;2023-06-01T16:50:31;7.22;;;3.90;;
76194;SDS011;64964;48.694;21.206;2023-06-01T16:52:56;9.03;;;4.40;;
76194;SDS011;64964;48.694;21.206;2023-06-01T16:55:21;7.23;;;3.87;;
76194;SDS011;64964;48.694;21.206;2023-06-01T16:57:47;5.85;;;4.15;;
76194;SDS011;64964;48.694;21.206;2023-06-01T17:00:12;9.57;;;4.73;;
76194;SDS011;64964;48.694;21.206;2023-06-01T17:02:38;5.37;;;3.80;;
76194;SDS011;64964;48.694;21.206;2023-06-01T17:05:04;6.47;;;4.10;;
76194;SDS011;64964;48.694;21.206;2023-06-01T17:07:29;6.25;;;4.00;;
76194;SDS011;64964;48.694;21.206;2023-06-01T17:09:55;7.77;;;4.60;;
76194;SDS011;64964;48.694;21.206;2023-06-01T17:12:20;6.67;;;4.50;;
76194;SDS011;64964;48.694;21.206;2023-06-01T17:14:47;9.02;;;4.55;;
76194;SDS011;64964;48.694;21.206;2023-06-01T17:17:12;8.37;;;4.40;;
76194;SDS011;64964;48.694;21.206;2023-06-01T17:19:38;5.53;;;4.25;;
76194;SDS011;64964;48.694;21.206;2023-06-01T17:22:05;6.20;;;4.50;;
76194;SDS011;64964;48.694;21.206;2023-06-01T17:24:31;7.43;;;4.63;;
76194;SDS011;64964;48.694;21.206;2023-06-01T17:26:56;7.57;;;4.80;;
76194;SDS011;64964;48.694;21.206;2023-06-01T17:29:22;6.80;;;4.37;;
76194;SDS011;64964;48.694;21.206;2023-06-01T17:31:47;9.67;;;4.37;;
76194;SDS011;64964;48.694;21.206;2023-06-01T17:34:12;6.93;;;4.47;;
76194;SDS011;64964;48.694;21.206;2023-06-01T17:36:38;11.40;;;5.30;;
76194;SDS011;64964;48.694;21.206;2023-06-01T17:39:03;7.83;;;4.40;;
76194;SDS011;64964;48.694;21.206;2023-06-01T17:41:28;7.43;;;4.13;;
76194;SDS011;64964;48.694;21.206;2023-06-01T17:43:54;10.27;;;4.30;;
76194;SDS011;64964;48.694;21.206;2023-06-01T17:46:19;7.37;;;4.10;;
76194;SDS011;64964;48.694;21.206;2023-06-01T17:48:45;9.17;;;4.77;;
76194;SDS011;64964;48.694;21.206;2023-06-01T17:51:10;9.80;;;4.45;;
76194;SDS011;64964;48.694;21.206;2023-06-01T17:53:35;8.83;;;4.70;;
76194;SDS011;64964;48.694;21.206;2023-06-01T17:56:01;9.57;;;4.83;;
76194;SDS011;64964;48.694;21.206;2023-06-01T17:58:26;10.00;;;5.03;;
76194;SDS011;64964;48.694;21.206;2023-06-01T18:00:51;8.73;;;5.00;;
76194;SDS011;64964;48.694;21.206;2023-06-01T18:03:17;12.10;;;5.27;;
76194;SDS011;64964;48.694;21.206;2023-06-01T18:05:42;12.00;;;5.87;;
76194;SDS011;64964;48.694;21.206;2023-06-01T18:08:08;12.67;;;5.40;;
76194;SDS011;64964;48.694;21.206;2023-06-01T18:10:33;15.47;;;6.20;;
76194;SDS011;64964;48.694;21.206;2023-06-01T18:12:58;16.88;;;7.03;;
76194;SDS011;64964;48.694;21.206;2023-06-01T18:15:24;10.10;;;4.83;;
76194;SDS011;64964;48.694;21.206;2023-06-01T18:17:49;8.63;;;4.43;;
76194;SDS011;64964;48.694;21.206;2023-06-01T18:20:14;9.77;;;4.27;;
76194;SDS011;64964;48.694;21.206;2023-06-01T18:22:40;7.27;;;4.40;;
76194;SDS011;64964;48.694;21.206;2023-06-01T18:25:05;7.17;;;4.37;;
76194;SDS011;64964;48.694;21.206;2023-06-01T18:27:31;8.65;;;5.55;;
76194;SDS011;64964;48.694;21.206;2023-06-01T18:29:56;7.87;;;5.73;;
76194;SDS011;64964;48.694;21.206;2023-06-01T18:32:22;10.70;;;6.03;;
76194;SDS011;64964;48.694;21.206;2023-06-01T18:34:47;11.67;;;8.77;;
76194;SDS011;64964;48.694;21.206;2023-06-01T18:37:13;9.98;;;7.47;;
76194;SDS011;64964;48.694;21.206;2023-06-01T18:39:39;12.00;;;5.60;;
76194;SDS011;64964;48.694;21.206;2023-06-01T18:42:04;6.43;;;4.83;;
76194;SDS011;64964;48.694;21.206;2023-06-01T18:44:30;8.57;;;5.40;;
76194;SDS011;64964;48.694;21.206;2023-06-01T18:46:56;8.00;;;4.90;;
76194;SDS011;64964;48.694;21.206;2023-06-01T18:49:21;9.13;;;4.97;;
76194;SDS011;64964;48.694;21.206;2023-06-01T18:51:47;8.17;;;5.70;;
76194;SDS011;64964;48.694;21.206;2023-06-01T18:54:14;8.68;;;5.30;;
76194;SDS011;64964;48.694;21.206;2023-06-01T18:56:40;9.95;;;5.43;;
76194;SDS011;64964;48.694;21.206;2023-06-01T18:59:05;9.13;;;5.20;;
76194;SDS011;64964;48.694;21.206;2023-06-01T19:01:31;9.60;;;5.37;;
76194;SDS011;64964;48.694;21.206;2023-06-01T19:03:56;9.13;;;5.25;;
76194;SDS011;64964;48.694;21.206;2023-06-01T19:06:21;10.40;;;4.90;;
76194;SDS011;64964;48.694;21.206;2023-06-01T19:08:47;6.83;;;4.57;;
76194;SDS011;64964;48.694;21.206;2023-06-01T19:11:14;9.38;;;5.10;;
76194;SDS011;64964;48.694;21.206;2023-06-01T19:13:41;7.03;;;4.60;;
76194;SDS011;64964;48.694;21.206;2023-06-01T19:16:12;7.70;;;4.97;;
76194;SDS011;64964;48.694;21.206;2023-06-01T19:18:50;8.23;;;5.07;;
76194;SDS011;64964;48.694;21.206;2023-06-01T19:21:17;7.50;;;4.78;;
76194;SDS011;64964;48.694;21.206;2023-06-01T19:23:47;7.60;;;4.70;;
76194;SDS011;64964;48.694;21.206;2023-06-01T19:26:13;9.88;;;4.72;;
76194;SDS011;64964;48.694;21.206;2023-06-01T19:28:39;8.65;;;5.03;;
76194;SDS011;64964;48.694;21.206;2023-06-01T19:31:05;9.07;;;4.57;;
76194;SDS011;64964;48.694;21.206;2023-06-01T19:33:32;9.80;;;5.13;;
76194;SDS011;64964;48.694;21.206;2023-06-01T19:35:59;7.28;;;4.65;;
76194;SDS011;64964;48.694;21.206;2023-06-01T19:38:25;8.97;;;4.53;;
76194;SDS011;64964;48.694;21.206;2023-06-01T19:40:50;10.53;;;4.90;;
76194;SDS011;64964;48.694;21.206;2023-06-01T19:43:23;7.40;;;4.77;;
76194;SDS011;64964;48.694;21.206;2023-06-01T19:46:02;8.30;;;4.60;;
76194;SDS011;64964;48.694;21.206;2023-06-01T19:48:40;9.55;;;4.32;;
76194;SDS011;64964;48.694;21.206;2023-06-01T19:51:06;8.15;;;4.82;;
76194;SDS011;64964;48.694;21.206;2023-06-01T19:53:31;6.37;;;4.20;;
76194;SDS011;64964;48.694;21.206;2023-06-01T19:55:57;8.30;;;4.60;;
76194;SDS011;64964;48.694;21.206;2023-06-01T19:58:24;8.05;;;4.35;;
76194;SDS011;64964;48.694;21.206;2023-06-01T20:00:50;8.38;;;4.75;;
76194;SDS011;64964;48.694;21.206;2023-06-01T20:03:16;7.87;;;4.40;;
76194;SDS011;64964;48.694;21.206;2023-06-01T20:05:42;7.40;;;5.07;;
76194;SDS011;64964;48.694;21.206;2023-06-01T20:08:08;8.98;;;4.97;;
76194;SDS011;64964;48.694;21.206;2023-06-01T20:10:37;7.60;;;4.30;;
76194;SDS011;64964;48.694;21.206;2023-06-01T20:13:04;8.07;;;4.60;;
76194;SDS011;64964;48.694;21.206;2023-06-01T20:15:31;8.52;;;4.38;;
76194;SDS011;64964;48.694;21.206;2023-06-01T20:18:01;7.47;;;4.43;;
76194;SDS011;64964;48.694;21.206;2023-06-01T20:20:35;8.87;;;5.93;;
76194;SDS011;64964;48.694;21.206;2023-06-01T20:23:06;7.25;;;5.50;;
76194;SDS011;64964;48.694;21.206;2023-06-01T20:25:33;9.27;;;6.30;;
76194;SDS011;64964;48.694;21.206;2023-06-01T20:28:02;11.23;;;6.68;;
76194;SDS011;64964;48.694;21.206;2023-06-01T20:33:01;9.47;;;6.33;;
76194;SDS011;64964;48.694;21.206;2023-06-01T20:35:29;10.73;;;6.60;;
76194;SDS011;64964;48.694;21.206;2023-06-01T20:37:54;12.98;;;6.50;;
76194;SDS011;64964;48.694;21.206;2023-06-01T20:40:54;11.63;;;6.27;;
76194;SDS011;64964;48.694;21.206;2023-06-01T20:43:10;9.93;;;6.25;;
76194;SDS011;64964;48.694;21.206;2023-06-01T20:45:55;9.32;;;5.57;;
76194;SDS011;64964;48.694;21.206;2023-06-01T20:48:32;8.10;;;5.63;;
76194;SDS011;64964;48.694;21.206;2023-06-01T20:51:16;8.05;;;5.22;;
76194;SDS011;64964;48.694;21.206;2023-06-01T20:53:47;9.40;;;5.05;;
76194;SDS011;64964;48.694;21.206;2023-06-01T20:56:39;7.57;;;5.00;;
76194;SDS011;64964;48.694;21.206;2023-06-01T20:59:22;9.18;;;4.72;;
76194;SDS011;64964;48.694;21.206;2023-06-01T21:01:52;7.63;;;5.10;;
76194;SDS011;64964;48.694;21.206;2023-06-01T21:04:20;7.43;;;5.10;;
76194;SDS011;64964;48.694;21.206;2023-06-01T21:06:50;9.85;;;5.38;;
76194;SDS011;64964;48.694;21.206;2023-06-01T21:09:16;7.38;;;5.28;;
76194;SDS011;64964;48.694;21.206;2023-06-01T21:11:44;8.97;;;4.93;;
76194;SDS011;64964;48.694;21.206;2023-06-01T21:14:10;8.30;;;5.13;;
76194;SDS011;64964;48.694;21.206;2023-06-01T21:16:36;8.35;;;4.85;;
76194;SDS011;64964;48.694;21.206;2023-06-01T21:19:02;7.70;;;5.25;;